Terminal Aerodrome Forecast
Issued by NWS Knoxville/Tri Cities, TN

Home | Current Version | Previous Version | Text Only | Print | Product List | Glossary On
Versions: 1 2 3 4 5 6 7 8 9 10 11 12 13 14 15 16 17 18 19 20 21 22 23 24 25 26 27 28 29 30 31 32 33 34 35 36 37 38 39 40 41 42 43 44 45 46 47
601
FTUS44 KMRX 011725
TAFTRI
TAF
KTRI 011725Z 0118/0218 21008KT P6SM BKN035
     FM012100 23012KT P6SM VCTS SCT050CB BKN200
     FM020400 VRB03KT P6SM SCT050 BKN120
     FM020900 VRB03KT 3SM BR SCT015 BKN040
     FM021400 23008KT P6SM SCT025 BKN100=

USA.gov is the U.S. government's official web portal to all federal, state and local government web resources and services.